Time;durP1;ratioP1;P1;durP2;ratioP2;P2;SDS_P1;SDS_P2;PMS_P1;PMS_P2;Temp;Humidity;BMP_temperature;BMP_pressure;BME280_temperature;BME280_humidity;BME280_pressure;Samples;Min_cycle;Max_cycle;Signal;HPM_P1;HPM_P2
2022/08/03 00:01:20;;;;;;;0.37;0.37;;;;;;;21.26;72.20;95583.09;4262126;33;20191;-54
2022/08/03 00:03:45;;;;;;;0.30;0.30;;;;;;;21.20;71.96;95574.50;4276653;33;20213;-58
2022/08/03 00:06:10;;;;;;;0.43;0.43;;;;;;;21.21;71.94;95573.34;4278252;33;20183;-58
2022/08/03 00:08:36;;;;;;;0.70;0.70;;;;;;;21.20;72.32;95576.41;4267839;33;20182;-55
2022/08/03 00:11:02;;;;;;;0.77;0.77;;;;;;;21.12;72.48;95572.78;4275250;33;20183;-57
2022/08/03 00:13:27;;;;;;;0.57;0.57;;;;;;;21.03;72.42;95579.50;4278419;33;20195;-54
2022/08/03 00:15:53;;;;;;;0.50;0.50;;;;;;;21.21;71.96;95576.06;4275689;33;20250;-56
2022/08/03 00:18:18;;;;;;;0.63;0.57;;;;;;;21.30;72.06;95573.16;4280480;33;20223;-57
2022/08/03 00:20:44;;;;;;;0.20;0.20;;;;;;;21.17;73.02;95575.19;4282506;33;20182;-58
2022/08/03 00:23:10;;;;;;;0.30;0.30;;;;;;;21.09;73.12;95573.47;4279019;33;20253;-56
2022/08/03 00:25:35;;;;;;;0.47;0.47;;;;;;;21.12;72.65;95578.16;4270886;33;20226;-57
2022/08/03 00:28:05;;;;;;;0.50;0.50;;;;;;;21.21;72.54;95575.28;4279324;33;20182;-57
2022/08/03 00:30:31;;;;;;;0.33;0.33;;;;;;;21.19;72.13;95572.16;4271641;33;20195;-56
2022/08/03 00:32:57;;;;;;;0.30;0.30;;;;;;;21.17;72.25;95569.81;4273171;33;20191;-54
2022/08/03 00:35:23;;;;;;;0.20;0.20;;;;;;;21.06;72.03;95566.09;4263545;33;20255;-54
2022/08/03 00:37:49;;;;;;;0.40;0.40;;;;;;;21.03;72.91;95569.50;4270990;33;20231;-57
2022/08/03 00:40:15;;;;;;;0.43;0.43;;;;;;;20.98;72.95;95566.31;4262831;33;20190;-55
2022/08/03 00:42:49;;;;;;;0.40;0.40;;;;;;;20.98;73.18;95569.78;4281681;33;20197;-55
2022/08/03 00:45:15;;;;;;;0.40;0.40;;;;;;;20.92;73.95;95571.97;4273162;33;20187;-55
2022/08/03 00:47:40;;;;;;;0.60;0.60;;;;;;;20.90;73.42;95576.16;4269864;33;20187;-55
2022/08/03 00:50:06;;;;;;;0.43;0.43;;;;;;;20.84;73.15;95572.94;4281499;33;20253;-58
2022/08/03 00:52:31;;;;;;;0.50;0.50;;;;;;;20.95;73.29;95569.72;4300330;33;20197;-53
2022/08/03 00:54:57;;;;;;;0.30;0.30;;;;;;;20.71;73.54;95568.03;4271919;33;20190;-56
2022/08/03 00:57:22;;;;;;;0.30;0.30;;;;;;;20.78;73.39;95568.19;4286143;33;20186;-58
2022/08/03 00:59:47;;;;;;;0.20;0.20;;;;;;;20.93;73.29;95570.06;4286142;33;20186;-54
2022/08/03 01:02:13;;;;;;;0.27;0.27;;;;;;;20.90;73.28;95568.84;4285953;33;20194;-54
2022/08/03 01:04:38;;;;;;;0.43;0.43;;;;;;;20.91;73.56;95562.31;4273634;33;20270;-56
2022/08/03 01:07:25;;;;;;;0.73;0.23;;;;;;;20.70;73.90;95567.25;4288408;33;20201;-64
2022/08/03 01:10:01;;;;;;;0.10;0.10;;;;;;;20.81;73.94;95567.47;4286389;33;20198;-55
2022/08/03 01:12:47;;;;;;;0.40;0.40;;;;;;;20.81;73.84;95562.06;4271561;33;20203;-56
2022/08/03 01:15:31;;;;;;;0.60;0.60;;;;;;;20.77;73.83;95559.31;4279596;33;20201;-58
2022/08/03 01:18:11;;;;;;;0.30;0.30;;;;;;;20.75;73.67;95558.91;4285500;33;20230;-54
2022/08/03 01:20:42;;;;;;;0.23;0.23;;;;;;;20.75;73.75;95552.72;4274524;33;20206;-55
2022/08/03 01:23:45;;;;;;;1.03;0.67;;;;;;;20.65;73.54;95555.94;4277186;33;20202;-57
2022/08/03 01:26:32;;;;;;;0.23;0.13;;;;;;;20.66;73.93;95552.91;4286544;33;20218;-54
2022/08/03 01:29:19;;;;;;;0.50;0.50;;;;;;;20.71;73.01;95551.84;4292296;33;20266;-56
2022/08/03 01:31:57;;;;;;;0.83;0.83;;;;;;;20.78;73.46;95552.00;4288171;33;20209;-57
2022/08/03 01:34:31;;;;;;;0.20;0.20;;;;;;;20.79;73.20;95545.47;4285904;33;20230;-56
2022/08/03 01:36:59;;;;;;;0.67;0.67;;;;;;;20.66;73.09;95549.41;4290490;33;20242;-55
2022/08/03 01:39:27;;;;;;;0.40;0.40;;;;;;;20.70;73.36;95545.69;4292228;33;20237;-57
2022/08/03 01:41:59;;;;;;;0.10;0.10;;;;;;;20.57;73.62;95545.03;4278388;33;20214;-57
2022/08/03 01:44:29;;;;;;;0.30;0.30;;;;;;;20.74;73.54;95540.38;4289267;33;20259;-57
2022/08/03 01:47:00;;;;;;;1.23;0.67;;;;;;;20.56;73.43;95546.16;4291322;33;20273;-57
2022/08/03 01:49:28;;;;;;;0.30;0.30;;;;;;;20.50;73.96;95546.78;4276440;33;20266;-55
2022/08/03 01:51:55;;;;;;;0.53;0.53;;;;;;;20.62;73.40;95538.56;4281863;33;20265;-54
2022/08/03 01:54:24;;;;;;;0.93;0.50;;;;;;;20.57;73.79;95550.41;4272204;33;20186;-56
2022/08/03 01:56:53;;;;;;;0.40;0.40;;;;;;;20.48;73.60;95543.63;4286824;33;20191;-53
2022/08/03 01:59:20;;;;;;;0.70;0.70;;;;;;;20.38;73.70;95544.94;4289467;33;20193;-55
2022/08/03 02:01:47;;;;;;;0.50;0.50;;;;;;;20.33;73.38;95547.91;4287676;33;20197;-55
2022/08/03 02:04:16;;;;;;;0.20;0.20;;;;;;;20.44;73.95;95540.06;4271856;33;20186;-56
2022/08/03 02:06:43;;;;;;;0.30;0.30;;;;;;;20.43;74.13;95542.00;4280699;33;20191;-55
2022/08/03 02:09:12;;;;;;;0.57;0.57;;;;;;;20.45;73.14;95539.72;4289793;33;20201;-55
2022/08/03 02:11:38;;;;;;;0.40;0.40;;;;;;;20.49;74.05;95545.97;4272959;33;20190;-56
2022/08/03 02:14:05;;;;;;;0.30;0.30;;;;;;;20.43;74.25;95541.19;4275665;33;20246;-56
2022/08/03 02:16:33;;;;;;;2.07;0.73;;;;;;;20.27;74.26;95537.72;4284722;33;20190;-57
2022/08/03 02:19:00;;;;;;;0.60;0.60;;;;;;;20.32;74.61;95538.25;4272079;33;20237;-57
2022/08/03 02:21:29;;;;;;;0.37;0.37;;;;;;;20.23;74.86;95545.72;4288590;33;20210;-55
2022/08/03 02:23:54;;;;;;;0.00;0.00;;;;;;;20.22;74.54;95544.16;4285826;33;20296;-56
2022/08/03 02:26:22;;;;;;;0.30;0.30;;;;;;;20.27;74.51;95543.13;4272177;33;20268;-57
2022/08/03 02:28:51;;;;;;;0.20;0.17;;;;;;;20.38;74.06;95544.16;4272867;33;20186;-55
2022/08/03 02:31:20;;;;;;;0.20;0.20;;;;;;;20.21;75.39;95540.69;4272153;33;20186;-56
2022/08/03 02:33:50;;;;;;;0.23;0.23;;;;;;;20.19;75.29;95536.78;4285565;33;20175;-57
2022/08/03 02:36:20;;;;;;;0.00;0.00;;;;;;;20.24;75.17;95536.50;4283574;33;20262;-56
2022/08/03 02:38:50;;;;;;;0.20;0.20;;;;;;;20.38;74.68;95541.47;4277891;33;20201;-56
2022/08/03 02:41:21;;;;;;;0.87;0.30;;;;;;;20.32;74.12;95543.63;4285049;33;20201;-57
2022/08/03 02:43:50;;;;;;;0.17;0.17;;;;;;;20.26;74.87;95547.72;4285062;33;20183;-56
2022/08/03 02:46:18;;;;;;;0.30;0.30;;;;;;;20.28;74.87;95539.28;4286310;33;20253;-57
2022/08/03 02:48:46;;;;;;;1.40;0.33;;;;;;;20.25;74.66;95540.78;4287816;33;20197;-54
2022/08/03 02:51:12;;;;;;;0.43;0.43;;;;;;;20.32;74.29;95540.94;4285282;33;20221;-56
2022/08/03 02:53:39;;;;;;;0.63;0.60;;;;;;;20.27;74.45;95541.19;4286026;33;20183;-54
2022/08/03 02:56:12;;;;;;;0.43;0.43;;;;;;;20.02;74.53;95547.91;4273479;33;20182;-57
2022/08/03 02:58:39;;;;;;;0.40;0.40;;;;;;;19.94;75.36;95546.19;4274665;33;20307;-55
2022/08/03 03:01:13;;;;;;;0.37;0.37;;;;;;;19.91;75.82;95544.97;4271996;33;20190;-59
2022/08/03 03:03:40;;;;;;;0.17;0.17;;;;;;;19.97;75.38;95540.84;4284439;33;20200;-57
2022/08/03 03:06:12;;;;;;;0.73;0.73;;;;;;;20.08;75.22;95541.13;4285104;33;20210;-57
2022/08/03 03:08:38;;;;;;;0.47;0.47;;;;;;;19.92;75.98;95545.75;4284908;33;20183;-57
2022/08/03 03:11:12;;;;;;;0.33;0.33;;;;;;;20.02;75.05;95532.53;4286435;33;20265;-64
2022/08/03 03:13:40;;;;;;;0.40;0.40;;;;;;;20.06;75.10;95538.00;4288712;33;20175;-56
2022/08/03 03:16:11;;;;;;;0.30;0.30;;;;;;;20.08;74.99;95535.75;4282624;33;20197;-57
2022/08/03 03:18:37;;;;;;;0.50;0.50;;;;;;;20.13;75.48;95532.78;4284810;33;20198;-56
2022/08/03 03:21:11;;;;;;;0.40;0.40;;;;;;;20.10;74.99;95530.78;4284658;33;20210;-55
2022/08/03 03:23:39;;;;;;;0.10;0.10;;;;;;;20.15;75.25;95541.31;4269939;33;20195;-57
2022/08/03 03:26:13;;;;;;;0.30;0.30;;;;;;;20.04;75.14;95532.19;4286155;33;20262;-55
2022/08/03 03:28:38;;;;;;;0.33;0.33;;;;;;;20.02;74.80;95531.75;4270766;33;20266;-56
2022/08/03 03:31:12;;;;;;;0.63;0.63;;;;;;;20.01;75.55;95530.97;4290984;33;20190;-57
2022/08/03 03:33:38;;;;;;;0.40;0.40;;;;;;;19.94;76.02;95541.56;4281187;33;20178;-58
2022/08/03 03:36:14;;;;;;;0.57;0.57;;;;;;;20.04;75.57;95540.25;4289495;33;20205;-58
2022/08/03 03:38:40;;;;;;;0.53;0.30;;;;;;;20.05;75.18;95536.44;4285306;33;20205;-54
2022/08/03 03:41:11;;;;;;;0.53;0.53;;;;;;;20.02;75.01;95537.13;4287568;33;20182;-58
2022/08/03 03:43:36;;;;;;;0.30;0.17;;;;;;;19.96;75.34;95538.50;4289060;33;20261;-56
2022/08/03 03:46:02;;;;;;;0.30;0.30;;;;;;;20.04;75.72;95532.19;4286452;33;20240;-55
2022/08/03 03:48:28;;;;;;;0.30;0.30;;;;;;;19.83;75.06;95535.13;4290737;33;20186;-57
2022/08/03 03:50:53;;;;;;;0.20;0.20;;;;;;;20.03;75.43;95538.69;4289641;33;23738;-54
2022/08/03 03:53:19;;;;;;;0.43;0.43;;;;;;;20.02;75.20;95542.50;4284549;33;20187;-55
2022/08/03 03:55:44;;;;;;;0.67;0.63;;;;;;;19.89;74.78;95548.00;4271639;33;20202;-52
2022/08/03 03:58:10;;;;;;;0.33;0.33;;;;;;;19.80;76.25;95547.38;4271061;33;20237;-54
2022/08/03 04:00:35;;;;;;;0.40;0.40;;;;;;;19.88;76.24;95546.44;4275392;33;20314;-57
2022/08/03 04:03:00;;;;;;;0.20;0.20;;;;;;;19.90;75.39;95543.41;4285711;33;20222;-55
2022/08/03 04:11:21;;;;;;;0.60;0.60;;;;;;;19.64;76.00;95543.88;4279783;33;20213;-54
2022/08/03 04:13:54;;;;;;;1.80;1.03;;;;;;;19.57;76.80;95549.06;4280510;33;20178;-57
2022/08/03 04:16:25;;;;;;;0.53;0.53;;;;;;;19.41;76.76;95548.22;4283092;33;20205;-54
2022/08/03 04:18:59;;;;;;;0.30;0.30;;;;;;;19.32;77.31;95544.94;4291754;33;20221;-56
2022/08/03 04:21:27;;;;;;;0.30;0.30;;;;;;;19.47;76.97;95552.25;4274533;33;20397;-56
2022/08/03 04:23:57;;;;;;;0.50;0.50;;;;;;;19.52;77.47;95552.03;4273628;33;20203;-57
2022/08/03 04:26:26;;;;;;;0.30;0.30;;;;;;;19.51;77.32;95551.25;4288012;33;20237;-56
2022/08/03 04:28:53;;;;;;;0.53;0.53;;;;;;;19.70;76.46;95555.97;4283850;33;20199;-56
2022/08/03 04:31:21;;;;;;;0.40;0.30;;;;;;;19.62;76.77;95556.13;4282926;33;20178;-54
2022/08/03 04:33:49;;;;;;;0.50;0.50;;;;;;;19.58;76.68;95555.25;4271402;33;20254;-57
2022/08/03 04:36:18;;;;;;;0.40;0.40;;;;;;;19.65;75.85;95556.22;4283950;33;20191;-56
2022/08/03 04:39:07;;;;;;;0.50;0.50;;;;;;;19.61;76.84;95560.72;4272299;33;20237;-57
2022/08/03 04:41:34;;;;;;;0.20;0.20;;;;;;;19.56;76.71;95558.28;4283411;33;20205;-56
2022/08/03 04:44:01;;;;;;;2.37;1.57;;;;;;;19.69;77.07;95550.94;4284933;33;20194;-55
2022/08/03 04:46:30;;;;;;;0.70;0.70;;;;;;;19.60;76.82;95558.37;4285203;33;20257;-56
2022/08/03 04:48:57;;;;;;;5.60;0.63;;;;;;;19.14;76.43;95558.66;4272024;33;20210;-57
2022/08/03 04:51:23;;;;;;;0.27;0.27;;;;;;;19.12;77.15;95562.84;4285621;33;20265;-57
2022/08/03 04:53:49;;;;;;;0.40;0.40;;;;;;;18.97;76.88;95563.53;4285424;33;20268;-57
2022/08/03 04:56:14;;;;;;;0.43;0.43;;;;;;;18.87;76.60;95565.59;4284919;33;20187;-57
2022/08/03 04:58:39;;;;;;;0.67;0.67;;;;;;;18.97;77.80;95564.31;4286507;33;20179;-56
2022/08/03 05:01:12;;;;;;;0.70;0.70;;;;;;;19.22;76.99;95559.63;4288832;33;20230;-56
2022/08/03 05:03:37;;;;;;;0.67;0.67;;;;;;;18.91;76.76;95559.53;4285596;33;20198;-55
2022/08/03 05:06:03;;;;;;;0.63;0.63;;;;;;;19.01;77.16;95564.41;4278962;33;20183;-58
2022/08/03 05:08:28;;;;;;;0.53;0.53;;;;;;;19.02;76.48;95561.38;4273186;33;20178;-56
2022/08/03 05:10:54;;;;;;;0.60;0.60;;;;;;;19.06;76.70;95564.19;4272589;33;20263;-55
2022/08/03 05:13:20;;;;;;;0.87;0.70;;;;;;;19.56;76.35;95571.72;4286376;33;20183;-57
2022/08/03 05:15:45;;;;;;;0.60;0.50;;;;;;;19.54;76.30;95566.69;4286747;33;20225;-57
2022/08/03 05:18:10;;;;;;;0.23;0.23;;;;;;;19.71;75.68;95568.31;4289228;33;20248;-55
2022/08/03 05:20:36;;;;;;;0.63;0.63;;;;;;;19.71;75.58;95572.91;4286593;33;20206;-54
2022/08/03 05:23:02;;;;;;;0.50;0.50;;;;;;;19.67;75.20;95570.13;4288626;33;20183;-56
2022/08/03 05:25:28;;;;;;;0.23;0.23;;;;;;;19.34;75.35;95577.63;4272927;33;20191;-56
2022/08/03 05:27:53;;;;;;;0.50;0.50;;;;;;;19.43;75.58;95579.06;4277935;33;20210;-57
2022/08/03 05:30:19;;;;;;;1.93;0.50;;;;;;;19.56;75.83;95579.81;4275219;33;20186;-56
2022/08/03 05:32:44;;;;;;;0.30;0.30;;;;;;;19.82;74.99;95584.72;4286242;33;20187;-58
2022/08/03 05:35:10;;;;;;;0.50;0.50;;;;;;;19.74;75.15;95586.47;4286329;33;20179;-57
2022/08/03 05:37:35;;;;;;;0.27;0.27;;;;;;;19.80;75.08;95587.75;4285804;33;20229;-54
2022/08/03 05:40:01;;;;;;;0.63;0.63;;;;;;;20.11;74.29;95583.53;4273931;33;20249;-56
2022/08/03 05:42:26;;;;;;;0.10;0.10;;;;;;;20.09;74.64;95588.50;4272221;33;20182;-55
2022/08/03 05:44:51;;;;;;;0.40;0.40;;;;;;;20.12;74.64;95585.09;4286889;33;20261;-56
2022/08/03 05:47:17;;;;;;;0.37;0.37;;;;;;;20.26;73.88;95588.13;4271150;33;20337;-55
2022/08/03 05:49:42;;;;;;;0.43;0.43;;;;;;;20.16;73.61;95586.75;4289688;33;20198;-56
2022/08/03 05:52:08;;;;;;;0.30;0.30;;;;;;;20.24;74.25;95580.41;4285076;33;20202;-56
2022/08/03 05:54:33;;;;;;;0.60;0.60;;;;;;;20.26;74.07;95580.06;4298914;33;20382;-54
2022/08/03 05:56:58;;;;;;;0.53;0.53;;;;;;;20.21;74.49;95591.09;4296502;33;20225;-54
2022/08/03 05:59:24;;;;;;;0.20;0.20;;;;;;;20.19;74.78;95574.50;4286108;33;20266;-55
2022/08/03 06:01:50;;;;;;;0.70;0.70;;;;;;;20.27;74.45;95576.22;4272212;33;20241;-56
2022/08/03 06:04:15;;;;;;;0.40;0.40;;;;;;;20.24;75.29;95575.00;4284091;33;20225;-57
2022/08/03 06:06:42;;;;;;;0.20;0.20;;;;;;;20.26;75.39;95582.75;4283730;33;20299;-56
2022/08/03 06:09:09;;;;;;;0.40;0.40;;;;;;;20.34;74.14;95576.41;4283350;33;20183;-57
2022/08/03 06:11:35;;;;;;;1.00;0.90;;;;;;;20.33;74.83;95577.53;4294214;33;20196;-58
2022/08/03 06:14:00;;;;;;;0.30;0.30;;;;;;;20.42;74.01;95583.56;4289232;33;20179;-57
2022/08/03 06:16:25;;;;;;;0.63;0.63;;;;;;;20.44;73.80;95581.28;4283170;33;20234;-56
2022/08/03 06:18:51;;;;;;;0.30;0.30;;;;;;;20.49;73.10;95582.94;4283728;33;20252;-57
2022/08/03 06:21:16;;;;;;;0.43;0.43;;;;;;;20.58;74.45;95584.31;4283183;33;20187;-58
2022/08/03 06:23:43;;;;;;;0.53;0.53;;;;;;;20.61;74.23;95590.13;4283650;33;20269;-57
2022/08/03 06:26:14;;;;;;;0.20;0.20;;;;;;;20.69;73.63;95587.25;4283813;33;20226;-58
2022/08/03 06:28:39;;;;;;;0.33;0.33;;;;;;;20.81;73.76;95591.75;4282188;33;20237;-57
2022/08/03 06:31:11;;;;;;;0.50;0.50;;;;;;;20.90;72.11;95592.34;4286264;33;20201;-57
2022/08/03 06:33:36;;;;;;;0.50;0.50;;;;;;;21.01;71.61;95598.72;4278364;33;20242;-57
2022/08/03 06:36:02;;;;;;;0.40;0.40;;;;;;;21.12;72.16;95604.38;4277915;33;20183;-55
2022/08/03 06:38:28;;;;;;;0.87;0.80;;;;;;;21.18;71.87;95602.97;4290557;33;20182;-57
2022/08/03 06:40:53;;;;;;;0.40;0.40;;;;;;;21.27;71.88;95590.84;4287394;33;20225;-55
2022/08/03 06:43:18;;;;;;;0.20;0.20;;;;;;;21.40;69.18;95593.41;4269414;33;20184;-56
2022/08/03 06:45:45;;;;;;;0.50;0.50;;;;;;;21.50;69.21;95596.31;4284040;33;20213;-56
2022/08/03 06:48:11;;;;;;;0.73;0.73;;;;;;;21.54;70.84;95596.37;4273272;33;20242;-55
2022/08/03 06:50:39;;;;;;;0.37;0.37;;;;;;;21.65;69.64;95594.66;4283963;33;20191;-58
2022/08/03 06:53:04;;;;;;;0.20;0.20;;;;;;;21.70;69.59;95597.06;4285508;33;20198;-56
2022/08/03 06:55:31;;;;;;;0.30;0.30;;;;;;;21.70;70.33;95596.28;4267709;33;20245;-57
2022/08/03 06:57:56;;;;;;;0.80;0.80;;;;;;;21.82;68.61;95594.19;4282352;33;20190;-58
2022/08/03 07:00:22;;;;;;;0.33;0.33;;;;;;;21.90;68.72;95604.00;4267470;33;20217;-56
2022/08/03 07:02:47;;;;;;;0.30;0.30;;;;;;;22.01;65.29;95606.16;4282029;33;20182;-54
2022/08/03 07:05:13;;;;;;;0.83;0.77;;;;;;;22.22;64.04;95606.53;4268445;33;20201;-59
2022/08/03 07:07:39;;;;;;;1.60;1.50;;;;;;;22.30;66.69;95597.38;4281704;33;20208;-56
2022/08/03 07:10:06;;;;;;;1.70;1.60;;;;;;;22.37;64.24;95608.31;4283042;33;20187;-65
2022/08/03 07:12:32;;;;;;;0.20;0.20;;;;;;;22.50;63.57;95601.56;4282882;33;20225;-60
2022/08/03 07:14:59;;;;;;;0.30;0.30;;;;;;;22.61;62.12;95601.75;4283132;33;20191;-59
2022/08/03 07:17:24;;;;;;;0.40;0.40;;;;;;;22.74;61.55;95596.91;4282465;33;20209;-55
2022/08/03 07:19:50;;;;;;;0.20;0.20;;;;;;;22.82;62.75;95595.91;4284234;33;20190;-58
2022/08/03 07:22:15;;;;;;;0.20;0.20;;;;;;;22.86;65.13;95600.19;4269100;33;20198;-58
2022/08/03 07:24:41;;;;;;;0.83;0.53;;;;;;;22.88;63.85;95600.63;4285668;33;20210;-59
2022/08/03 07:27:08;;;;;;;0.30;0.30;;;;;;;22.94;62.72;95592.97;4283914;33;20190;-59
2022/08/03 07:29:34;;;;;;;0.40;0.40;;;;;;;23.01;61.01;95593.09;4272749;33;20246;-59
2022/08/03 07:32:00;;;;;;;0.20;0.20;;;;;;;23.08;60.59;95590.44;4286509;33;20191;-60
2022/08/03 07:34:25;;;;;;;0.50;0.50;;;;;;;23.11;61.11;95578.91;4270933;33;20182;-56
2022/08/03 07:36:50;;;;;;;0.53;0.43;;;;;;;23.23;60.70;95580.59;4284475;33;20244;-59
2022/08/03 07:39:16;;;;;;;0.73;0.47;;;;;;;23.38;60.04;95578.84;4284740;33;20217;-61
2022/08/03 07:41:41;;;;;;;0.10;0.10;;;;;;;23.36;60.91;95581.91;4275617;33;20238;-59
2022/08/03 07:44:07;;;;;;;0.47;0.47;;;;;;;23.35;61.73;95579.56;4284564;33;20186;-59
2022/08/03 07:46:32;;;;;;;0.70;0.70;;;;;;;23.49;60.04;95587.87;4291704;33;20197;-58
2022/08/03 07:48:57;;;;;;;2.90;2.70;;;;;;;23.61;58.92;95580.31;4284296;33;20240;-61
2022/08/03 07:51:23;;;;;;;1.13;0.50;;;;;;;23.58;61.17;95580.28;4293123;33;20196;-59
2022/08/03 07:53:48;;;;;;;0.20;0.20;;;;;;;23.70;58.79;95580.00;4278638;33;20226;-59
2022/08/03 07:56:15;;;;;;;0.43;0.43;;;;;;;23.76;60.59;95578.53;4281372;33;20185;-59
2022/08/03 07:58:41;;;;;;;0.30;0.30;;;;;;;23.92;57.94;95579.06;4288030;33;20186;-59
2022/08/03 08:01:15;;;;;;;0.30;0.30;;;;;;;24.04;57.64;95574.53;4274411;33;20238;-59
2022/08/03 08:03:41;;;;;;;0.40;0.40;;;;;;;24.08;59.65;95568.00;4289607;33;20191;-59
2022/08/03 08:06:12;;;;;;;0.20;0.20;;;;;;;24.02;60.81;95574.91;4285783;33;20186;-59
2022/08/03 08:08:38;;;;;;;0.13;0.13;;;;;;;24.16;57.67;95563.41;4296189;33;20182;-59
2022/08/03 08:11:12;;;;;;;0.27;0.27;;;;;;;24.15;57.72;95570.75;4290214;33;20195;-59
2022/08/03 08:13:39;;;;;;;0.00;0.00;;;;;;;24.23;57.40;95564.25;4279228;33;20171;-59
2022/08/03 08:16:13;;;;;;;0.13;0.13;;;;;;;24.23;57.41;95566.19;4298455;33;20178;-64
2022/08/03 08:18:38;;;;;;;0.43;0.43;;;;;;;24.24;57.87;95565.84;4277757;33;20179;-60
2022/08/03 08:21:16;;;;;;;0.20;0.20;;;;;;;24.38;57.28;95565.19;4300746;33;20197;-59
2022/08/03 08:23:42;;;;;;;0.17;0.17;;;;;;;24.41;57.63;95569.06;4273493;33;20217;-59
2022/08/03 08:26:13;;;;;;;0.10;0.10;;;;;;;24.44;57.96;95558.25;4297430;33;20182;-60
2022/08/03 08:28:38;;;;;;;0.50;0.50;;;;;;;24.55;56.79;95561.81;4291934;33;20182;-59
2022/08/03 08:31:04;;;;;;;0.43;0.43;;;;;;;24.65;56.92;95558.41;4288878;33;20186;-59
2022/08/03 08:33:29;;;;;;;0.20;0.20;;;;;;;24.58;57.29;95563.78;4280229;33;20305;-57
2022/08/03 08:35:55;;;;;;;0.60;0.60;;;;;;;24.65;57.41;95561.12;4291818;33;20285;-60
2022/08/03 08:38:21;;;;;;;0.70;0.63;;;;;;;24.70;57.02;95553.78;4291836;33;20182;-60
2022/08/03 08:40:48;;;;;;;0.63;0.63;;;;;;;24.85;55.63;95558.13;4295472;33;20198;-60
2022/08/03 08:43:14;;;;;;;0.53;0.50;;;;;;;25.02;54.91;95559.41;4290251;33;20183;-59
2022/08/03 08:45:40;;;;;;;0.10;0.10;;;;;;;25.01;54.79;95558.63;4289792;33;20201;-59
2022/08/03 08:48:07;;;;;;;0.13;0.13;;;;;;;25.19;53.93;95556.78;4271946;33;20179;-59
2022/08/03 08:50:33;;;;;;;0.10;0.10;;;;;;;25.28;53.60;95554.50;4286733;33;20220;-60
2022/08/03 08:53:02;;;;;;;0.20;0.20;;;;;;;25.40;52.74;95555.31;4286775;33;20199;-60
2022/08/03 08:55:28;;;;;;;0.20;0.20;;;;;;;25.31;52.88;95556.47;4285001;33;20186;-60
2022/08/03 08:58:01;;;;;;;0.20;0.20;;;;;;;25.40;51.69;95547.94;4286215;33;20273;-59
2022/08/03 09:00:26;;;;;;;0.57;0.57;;;;;;;25.51;50.39;95548.78;4274425;33;20187;-59
2022/08/03 09:02:52;;;;;;;0.13;0.13;;;;;;;25.59;49.95;95553.03;4272410;33;20240;-59
2022/08/03 09:05:19;;;;;;;0.00;0.00;;;;;;;25.62;50.13;95552.31;4284510;33;20195;-59
2022/08/03 09:07:46;;;;;;;0.60;0.60;;;;;;;25.62;49.33;95551.50;4273272;33;20170;-59
2022/08/03 09:10:13;;;;;;;0.20;0.20;;;;;;;25.74;48.10;95561.28;4272977;33;20316;-59
2022/08/03 09:12:42;;;;;;;0.57;0.57;;;;;;;25.84;47.37;95546.91;4278696;33;20187;-59
2022/08/03 09:15:24;;;;;;;1.80;0.40;;;;;;;25.92;47.76;95546.56;4289261;33;20185;-59
2022/08/03 09:17:52;;;;;;;0.43;0.43;;;;;;;26.00;47.83;95550.03;4286128;33;20178;-59
2022/08/03 09:20:19;;;;;;;0.10;0.10;;;;;;;26.02;47.77;95550.44;4286294;33;20202;-59
2022/08/03 09:23:07;;;;;;;0.40;0.40;;;;;;;26.12;47.23;95552.41;4288475;33;20194;-59
2022/08/03 09:25:37;;;;;;;0.27;0.27;;;;;;;26.12;47.31;95544.25;4285216;33;20178;-58
2022/08/03 09:28:10;;;;;;;0.20;0.20;;;;;;;26.10;47.62;95548.50;4289256;33;20204;-59
2022/08/03 09:30:38;;;;;;;1.60;0.67;;;;;;;26.23;46.91;95550.47;4283957;33;20198;-58
2022/08/03 09:33:08;;;;;;;0.30;0.30;;;;;;;26.10;47.07;95540.34;4292005;33;20249;-59
2022/08/03 09:35:48;;;;;;;0.03;0.03;;;;;;;26.03;47.36;95541.13;4290389;33;20228;-58
2022/08/03 09:38:24;;;;;;;0.67;0.67;;;;;;;26.22;45.74;95550.84;4287614;33;20272;-59
2022/08/03 09:40:50;;;;;;;0.97;0.63;;;;;;;26.31;45.24;95548.56;4273711;33;20238;-58
2022/08/03 09:43:16;;;;;;;0.20;0.20;;;;;;;26.43;43.97;95548.16;4286744;33;20179;-58
2022/08/03 09:45:43;;;;;;;0.17;0.17;;;;;;;26.38;44.32;95545.84;4294835;33;20289;-58
2022/08/03 09:48:29;;;;;;;0.10;0.10;;;;;;;26.43;44.26;95545.44;4281388;33;20205;-58
2022/08/03 09:50:58;;;;;;;0.20;0.20;;;;;;;26.40;44.58;95543.47;4272940;33;20183;-59
2022/08/03 09:53:24;;;;;;;0.17;0.17;;;;;;;26.54;44.33;95540.00;4276397;33;20222;-58
2022/08/03 09:56:00;;;;;;;0.27;0.27;;;;;;;26.66;43.03;95545.78;4279394;33;20189;-58
2022/08/03 09:58:30;;;;;;;0.10;0.10;;;;;;;26.67;42.75;95541.13;4283029;33;20250;-58
2022/08/03 10:01:00;;;;;;;1.70;0.90;;;;;;;26.70;43.14;95548.53;4271856;33;20341;-58
2022/08/03 10:03:37;;;;;;;0.20;0.20;;;;;;;26.65;42.65;95552.41;4284245;33;20261;-58
2022/08/03 10:06:18;;;;;;;0.17;0.17;;;;;;;26.82;41.05;95548.09;4280907;33;20200;-58
2022/08/03 10:08:44;;;;;;;0.30;0.20;;;;;;;26.94;41.77;95544.19;4285605;33;20178;-58
2022/08/03 10:11:29;;;;;;;0.40;0.40;;;;;;;26.96;43.00;95539.16;4284704;33;20261;-58
2022/08/03 10:13:54;;;;;;;0.10;0.10;;;;;;;26.95;42.38;95545.78;4271740;33;20190;-58
2022/08/03 10:16:21;;;;;;;0.20;0.20;;;;;;;27.11;41.58;95548.84;4288441;33;20202;-58
2022/08/03 10:18:47;;;;;;;0.30;0.30;;;;;;;27.07;41.67;95542.63;4258534;33;20212;-58
2022/08/03 10:21:18;;;;;;;0.00;0.00;;;;;;;27.09;40.81;95539.50;4270083;33;20191;-59
2022/08/03 10:23:46;;;;;;;0.10;0.10;;;;;;;27.07;41.24;95534.44;4274806;33;20213;-59
2022/08/03 10:26:18;;;;;;;0.47;0.47;;;;;;;27.13;41.81;95530.16;4266537;33;20199;-59
2022/08/03 10:28:50;;;;;;;0.13;0.13;;;;;;;27.18;41.53;95540.66;4283520;33;20216;-58
2022/08/03 10:31:19;;;;;;;0.23;0.23;;;;;;;27.15;41.28;95533.25;4274991;33;20194;-58
2022/08/03 10:33:49;;;;;;;0.20;0.20;;;;;;;27.09;41.74;95528.59;4285245;33;20203;-58
2022/08/03 10:36:15;;;;;;;0.13;0.13;;;;;;;27.14;41.58;95531.72;4275417;33;20203;-58
2022/08/03 10:38:55;;;;;;;0.10;0.10;;;;;;;27.30;40.62;95523.84;4284479;33;20260;-58
2022/08/03 10:41:22;;;;;;;0.13;0.13;;;;;;;27.21;40.91;95523.50;4280412;33;20187;-59
2022/08/03 10:44:01;;;;;;;3.47;0.63;;;;;;;27.11;40.89;95527.03;4285746;33;20186;-58
2022/08/03 10:46:27;;;;;;;0.30;0.30;;;;;;;27.26;41.21;95527.75;4279424;33;20183;-59
2022/08/03 10:48:55;;;;;;;0.10;0.10;;;;;;;27.28;40.13;95531.62;4285123;33;20226;-58
2022/08/03 10:51:21;;;;;;;0.00;0.00;;;;;;;27.22;41.21;95527.00;4272844;33;20201;-59
2022/08/03 10:53:47;;;;;;;0.20;0.20;;;;;;;27.26;40.66;95506.72;4271964;33;20187;-58
2022/08/03 10:59:16;;;;;;;0.30;0.30;;;;;;;27.54;40.32;95503.09;4283423;33;20249;-58
2022/08/03 11:01:53;;;;;;;0.10;0.10;;;;;;;27.52;40.17;95501.94;4283214;33;20187;-58
2022/08/03 11:04:20;;;;;;;0.17;0.17;;;;;;;27.54;40.52;95503.09;4282874;33;20258;-60
2022/08/03 11:06:47;;;;;;;0.27;0.27;;;;;;;27.46;40.39;95507.03;4285403;33;20212;-59
2022/08/03 11:09:12;;;;;;;0.20;0.20;;;;;;;27.50;40.28;95501.56;4273658;33;20226;-58
2022/08/03 11:11:45;;;;;;;0.27;0.27;;;;;;;27.67;39.47;95489.78;4273157;33;20197;-58
2022/08/03 11:14:19;;;;;;;0.23;0.23;;;;;;;27.64;39.26;95488.63;4254183;33;20213;-59
2022/08/03 11:16:48;;;;;;;0.10;0.10;;;;;;;27.70;38.79;95491.72;4274164;33;20202;-59
2022/08/03 11:19:21;;;;;;;0.80;0.40;;;;;;;27.60;39.18;95498.81;4289891;33;20230;-58
2022/08/03 11:21:54;;;;;;;0.10;0.10;;;;;;;27.57;39.11;95498.81;4285675;33;20191;-58
2022/08/03 11:24:52;;;;;;;0.60;0.60;;;;;;;27.60;39.01;95498.03;4284233;33;20202;-59
2022/08/03 11:27:34;;;;;;;0.63;0.53;;;;;;;27.78;38.50;95493.25;4290490;33;20190;-59
2022/08/03 11:30:29;;;;;;;0.10;0.10;;;;;;;27.88;37.86;95492.38;4288798;33;20207;-59
2022/08/03 11:32:58;;;;;;;0.30;0.30;;;;;;;28.04;37.51;95495.41;4275958;33;20194;-59
2022/08/03 11:35:29;;;;;;;0.50;0.50;;;;;;;28.14;36.74;95485.56;4286070;33;20202;-59
2022/08/03 11:37:57;;;;;;;0.40;0.40;;;;;;;27.97;36.82;95489.97;4265342;33;20203;-59
2022/08/03 11:40:34;;;;;;;0.30;0.30;;;;;;;28.02;36.24;95495.03;4290440;33;20233;-59
2022/08/03 11:43:00;;;;;;;0.00;0.00;;;;;;;27.94;36.18;95490.78;4276819;33;20195;-59
2022/08/03 11:45:26;;;;;;;0.20;0.20;;;;;;;27.89;36.62;95496.66;4288954;33;20309;-58
2022/08/03 11:47:54;;;;;;;0.37;0.37;;;;;;;27.95;35.84;95488.84;4289925;33;20237;-58
2022/08/03 11:50:21;;;;;;;0.43;0.43;;;;;;;27.85;35.58;95487.72;4267384;33;20206;-58